sensor_id;sensor_type;location;lat;lon;timestamp;temperature;humidity
13229;DHT22;6680;53.220;10.402;2023-05-02T00:01:41;10.70;99.90
13229;DHT22;6680;53.220;10.402;2023-05-02T00:04:07;10.70;99.90
13229;DHT22;6680;53.220;10.402;2023-05-02T00:06:34;10.70;99.90
13229;DHT22;6680;53.220;10.402;2023-05-02T00:09:02;10.70;99.90
13229;DHT22;6680;53.220;10.402;2023-05-02T00:11:29;10.70;99.90
13229;DHT22;6680;53.220;10.402;2023-05-02T00:13:56;10.80;99.90
13229;DHT22;6680;53.220;10.402;2023-05-02T00:16:22;10.90;99.90
13229;DHT22;6680;53.220;10.402;2023-05-02T00:18:49;10.90;99.90
13229;DHT22;6680;53.220;10.402;2023-05-02T00:21:16;11.00;99.90
13229;DHT22;6680;53.220;10.402;2023-05-02T00:23:43;11.00;99.90
13229;DHT22;6680;53.220;10.402;2023-05-02T00:26:11;11.10;99.90
13229;DHT22;6680;53.220;10.402;2023-05-02T00:28:37;11.10;99.90
13229;DHT22;6680;53.220;10.402;2023-05-02T00:31:04;11.10;99.90
13229;DHT22;6680;53.220;10.402;2023-05-02T00:33:31;11.20;99.90
13229;DHT22;6680;53.220;10.402;2023-05-02T00:35:58;11.20;99.90
13229;DHT22;6680;53.220;10.402;2023-05-02T00:38:24;11.20;99.90
13229;DHT22;6680;53.220;10.402;2023-05-02T00:40:51;11.20;99.90
13229;DHT22;6680;53.220;10.402;2023-05-02T00:43:19;11.20;99.90
13229;DHT22;6680;53.220;10.402;2023-05-02T00:45:47;11.20;99.90
13229;DHT22;6680;53.220;10.402;2023-05-02T00:48:13;11.40;99.90
13229;DHT22;6680;53.220;10.402;2023-05-02T00:50:42;11.20;99.90
13229;DHT22;6680;53.220;10.402;2023-05-02T00:53:09;11.20;99.90
13229;DHT22;6680;53.220;10.402;2023-05-02T00:55:37;11.20;99.90
13229;DHT22;6680;53.220;10.402;2023-05-02T00:58:05;11.50;99.90
13229;DHT22;6680;53.220;10.402;2023-05-02T01:00:48;11.10;99.90
13229;DHT22;6680;53.220;10.402;2023-05-02T01:03:28;11.00;99.90
13229;DHT22;6680;53.220;10.402;2023-05-02T01:06:08;10.90;99.90
13229;DHT22;6680;53.220;10.402;2023-05-02T01:08:42;10.90;99.90
13229;DHT22;6680;53.220;10.402;2023-05-02T01:11:14;11.00;99.90
13229;DHT22;6680;53.220;10.402;2023-05-02T01:13:45;10.90;99.90
13229;DHT22;6680;53.220;10.402;2023-05-02T01:16:15;10.80;99.90
13229;DHT22;6680;53.220;10.402;2023-05-02T01:18:43;10.70;99.90
13229;DHT22;6680;53.220;10.402;2023-05-02T01:21:11;10.60;99.90
13229;DHT22;6680;53.220;10.402;2023-05-02T01:23:45;10.50;99.90
13229;DHT22;6680;53.220;10.402;2023-05-02T01:26:18;10.50;99.90
13229;DHT22;6680;53.220;10.402;2023-05-02T01:29:07;10.40;99.90
13229;DHT22;6680;53.220;10.402;2023-05-02T01:31:37;10.40;99.90
13229;DHT22;6680;53.220;10.402;2023-05-02T01:34:08;10.30;99.90
13229;DHT22;6680;53.220;10.402;2023-05-02T01:36:37;10.30;99.90
13229;DHT22;6680;53.220;10.402;2023-05-02T01:39:08;10.30;99.90
13229;DHT22;6680;53.220;10.402;2023-05-02T01:41:36;10.20;99.90
13229;DHT22;6680;53.220;10.402;2023-05-02T01:44:04;10.20;99.90
13229;DHT22;6680;53.220;10.402;2023-05-02T01:46:38;10.10;99.90
13229;DHT22;6680;53.220;10.402;2023-05-02T01:49:06;10.10;99.90
13229;DHT22;6680;53.220;10.402;2023-05-02T01:51:42;10.10;99.90
13229;DHT22;6680;53.220;10.402;2023-05-02T01:54:12;10.00;99.90
13229;DHT22;6680;53.220;10.402;2023-05-02T01:56:39;10.10;99.90
13229;DHT22;6680;53.220;10.402;2023-05-02T01:59:08;10.00;99.90
13229;DHT22;6680;53.220;10.402;2023-05-02T02:01:38;10.00;99.90
13229;DHT22;6680;53.220;10.402;2023-05-02T02:04:07;10.00;99.90
13229;DHT22;6680;53.220;10.402;2023-05-02T02:06:35;9.90;99.90
13229;DHT22;6680;53.220;10.402;2023-05-02T02:09:01;10.00;99.90
13229;DHT22;6680;53.220;10.402;2023-05-02T02:11:33;9.90;99.90
13229;DHT22;6680;53.220;10.402;2023-05-02T02:14:05;9.90;99.90
13229;DHT22;6680;53.220;10.402;2023-05-02T02:16:33;9.80;99.90
13229;DHT22;6680;53.220;10.402;2023-05-02T02:19:06;9.80;99.90
13229;DHT22;6680;53.220;10.402;2023-05-02T02:21:34;9.80;99.90
13229;DHT22;6680;53.220;10.402;2023-05-02T02:24:02;9.80;99.90
13229;DHT22;6680;53.220;10.402;2023-05-02T02:26:30;9.70;99.90
13229;DHT22;6680;53.220;10.402;2023-05-02T02:28:56;9.70;99.90
13229;DHT22;6680;53.220;10.402;2023-05-02T02:31:23;9.70;99.90
13229;DHT22;6680;53.220;10.402;2023-05-02T02:33:55;9.70;99.90
13229;DHT22;6680;53.220;10.402;2023-05-02T02:36:28;9.70;99.90
13229;DHT22;6680;53.220;10.402;2023-05-02T02:39:03;9.80;99.90
13229;DHT22;6680;53.220;10.402;2023-05-02T02:41:36;9.90;99.90
13229;DHT22;6680;53.220;10.402;2023-05-02T02:44:15;10.00;99.90
13229;DHT22;6680;53.220;10.402;2023-05-02T02:46:49;10.20;99.90
13229;DHT22;6680;53.220;10.402;2023-05-02T02:49:23;10.20;99.90
13229;DHT22;6680;53.220;10.402;2023-05-02T02:52:00;10.30;99.90
13229;DHT22;6680;53.220;10.402;2023-05-02T02:54:32;10.30;99.90
13229;DHT22;6680;53.220;10.402;2023-05-02T02:57:05;10.30;99.90
13229;DHT22;6680;53.220;10.402;2023-05-02T02:59:35;10.30;99.90
13229;DHT22;6680;53.220;10.402;2023-05-02T03:02:06;10.30;99.90
13229;DHT22;6680;53.220;10.402;2023-05-02T03:04:37;10.40;99.90
13229;DHT22;6680;53.220;10.402;2023-05-02T03:07:06;10.50;99.90
13229;DHT22;6680;53.220;10.402;2023-05-02T03:09:42;10.60;99.90
13229;DHT22;6680;53.220;10.402;2023-05-02T03:12:09;10.60;99.90
13229;DHT22;6680;53.220;10.402;2023-05-02T03:14:37;10.60;99.90
13229;DHT22;6680;53.220;10.402;2023-05-02T03:17:03;10.70;99.90
13229;DHT22;6680;53.220;10.402;2023-05-02T03:19:30;10.70;99.90
13229;DHT22;6680;53.220;10.402;2023-05-02T03:21:57;10.70;99.90
13229;DHT22;6680;53.220;10.402;2023-05-02T03:24:25;10.70;99.90
13229;DHT22;6680;53.220;10.402;2023-05-02T03:26:53;10.80;99.90
13229;DHT22;6680;53.220;10.402;2023-05-02T03:29:20;10.80;99.90
13229;DHT22;6680;53.220;10.402;2023-05-02T03:31:47;10.70;99.90
13229;DHT22;6680;53.220;10.402;2023-05-02T03:34:14;10.70;99.90
13229;DHT22;6680;53.220;10.402;2023-05-02T03:36:41;10.60;99.90
13229;DHT22;6680;53.220;10.402;2023-05-02T03:39:07;10.60;99.90
13229;DHT22;6680;53.220;10.402;2023-05-02T03:41:36;10.60;99.90
13229;DHT22;6680;53.220;10.402;2023-05-02T03:44:03;10.60;99.90
13229;DHT22;6680;53.220;10.402;2023-05-02T03:46:30;10.60;99.90
13229;DHT22;6680;53.220;10.402;2023-05-02T03:48:57;10.60;99.90
13229;DHT22;6680;53.220;10.402;2023-05-02T03:51:23;10.60;99.90
13229;DHT22;6680;53.220;10.402;2023-05-02T03:53:51;10.60;99.90
13229;DHT22;6680;53.220;10.402;2023-05-02T03:56:17;10.50;99.90
13229;DHT22;6680;53.220;10.402;2023-05-02T03:58:47;10.50;99.90
13229;DHT22;6680;53.220;10.402;2023-05-02T04:01:14;10.40;99.90
13229;DHT22;6680;53.220;10.402;2023-05-02T04:03:41;10.30;99.90
13229;DHT22;6680;53.220;10.402;2023-05-02T04:06:08;10.10;99.90
13229;DHT22;6680;53.220;10.402;2023-05-02T04:08:35;9.80;99.90
13229;DHT22;6680;53.220;10.402;2023-05-02T04:11:03;9.40;99.90
13229;DHT22;6680;53.220;10.402;2023-05-02T04:13:29;9.30;99.90
13229;DHT22;6680;53.220;10.402;2023-05-02T04:15:57;9.10;99.90
13229;DHT22;6680;53.220;10.402;2023-05-02T04:18:24;9.00;99.90
13229;DHT22;6680;53.220;10.402;2023-05-02T04:20:51;8.90;99.90
13229;DHT22;6680;53.220;10.402;2023-05-02T04:23:18;8.90;99.90
13229;DHT22;6680;53.220;10.402;2023-05-02T04:25:50;8.90;99.90
13229;DHT22;6680;53.220;10.402;2023-05-02T04:28:17;9.00;99.90
13229;DHT22;6680;53.220;10.402;2023-05-02T04:30:44;8.80;99.90
13229;DHT22;6680;53.220;10.402;2023-05-02T04:33:12;9.00;99.90
13229;DHT22;6680;53.220;10.402;2023-05-02T04:35:39;8.80;99.90
13229;DHT22;6680;53.220;10.402;2023-05-02T04:38:06;8.60;99.90
13229;DHT22;6680;53.220;10.402;2023-05-02T04:40:33;8.80;99.90
13229;DHT22;6680;53.220;10.402;2023-05-02T04:43:00;8.80;99.90
13229;DHT22;6680;53.220;10.402;2023-05-02T04:45:27;8.90;99.90
13229;DHT22;6680;53.220;10.402;2023-05-02T04:47:54;8.90;99.90
13229;DHT22;6680;53.220;10.402;2023-05-02T04:50:22;8.90;99.90
13229;DHT22;6680;53.220;10.402;2023-05-02T04:52:49;8.90;99.90
13229;DHT22;6680;53.220;10.402;2023-05-02T04:55:15;8.80;99.90
13229;DHT22;6680;53.220;10.402;2023-05-02T04:57:42;8.70;99.90
13229;DHT22;6680;53.220;10.402;2023-05-02T05:00:10;8.60;99.90
13229;DHT22;6680;53.220;10.402;2023-05-02T05:02:37;8.50;99.90
13229;DHT22;6680;53.220;10.402;2023-05-02T05:05:04;8.50;99.90
13229;DHT22;6680;53.220;10.402;2023-05-02T05:07:32;8.50;99.90
13229;DHT22;6680;53.220;10.402;2023-05-02T05:09:59;8.40;99.90
13229;DHT22;6680;53.220;10.402;2023-05-02T05:12:26;8.30;99.90
13229;DHT22;6680;53.220;10.402;2023-05-02T05:14:52;8.30;99.90
13229;DHT22;6680;53.220;10.402;2023-05-02T05:17:19;8.30;99.90
13229;DHT22;6680;53.220;10.402;2023-05-02T05:19:47;8.30;99.90
13229;DHT22;6680;53.220;10.402;2023-05-02T05:22:13;8.30;99.90
13229;DHT22;6680;53.220;10.402;2023-05-02T05:24:42;8.30;99.90
13229;DHT22;6680;53.220;10.402;2023-05-02T05:27:08;8.30;99.90
13229;DHT22;6680;53.220;10.402;2023-05-02T05:29:36;10.30;99.90
13229;DHT22;6680;53.220;10.402;2023-05-02T05:32:02;8.40;99.90
13229;DHT22;6680;53.220;10.402;2023-05-02T05:34:30;8.50;99.90
13229;DHT22;6680;53.220;10.402;2023-05-02T05:36:57;8.50;99.90
13229;DHT22;6680;53.220;10.402;2023-05-02T05:39:24;8.60;99.90
13229;DHT22;6680;53.220;10.402;2023-05-02T05:41:52;8.60;99.90
13229;DHT22;6680;53.220;10.402;2023-05-02T05:44:19;8.90;99.90
13229;DHT22;6680;53.220;10.402;2023-05-02T05:46:46;9.40;99.90
13229;DHT22;6680;53.220;10.402;2023-05-02T05:49:14;9.80;99.90
13229;DHT22;6680;53.220;10.402;2023-05-02T05:51:42;10.20;99.90
13229;DHT22;6680;53.220;10.402;2023-05-02T05:54:09;10.80;99.90
13229;DHT22;6680;53.220;10.402;2023-05-02T05:56:36;11.30;99.90
13229;DHT22;6680;53.220;10.402;2023-05-02T05:59:04;11.30;99.90
13229;DHT22;6680;53.220;10.402;2023-05-02T06:01:31;11.10;99.90
13229;DHT22;6680;53.220;10.402;2023-05-02T06:03:58;10.60;99.90
13229;DHT22;6680;53.220;10.402;2023-05-02T06:06:25;10.20;99.90
13229;DHT22;6680;53.220;10.402;2023-05-02T06:08:52;10.00;99.90
13229;DHT22;6680;53.220;10.402;2023-05-02T06:11:19;9.90;99.90
13229;DHT22;6680;53.220;10.402;2023-05-02T06:13:45;9.80;99.90
13229;DHT22;6680;53.220;10.402;2023-05-02T06:16:13;9.80;99.90
13229;DHT22;6680;53.220;10.402;2023-05-02T06:18:40;9.80;99.90
13229;DHT22;6680;53.220;10.402;2023-05-02T06:21:07;9.80;99.90
13229;DHT22;6680;53.220;10.402;2023-05-02T06:23:33;9.60;99.90
13229;DHT22;6680;53.220;10.402;2023-05-02T06:26:01;9.30;99.90
13229;DHT22;6680;53.220;10.402;2023-05-02T06:28:28;9.20;99.90
13229;DHT22;6680;53.220;10.402;2023-05-02T06:30:58;9.10;99.90
13229;DHT22;6680;53.220;10.402;2023-05-02T06:33:27;8.90;99.90
13229;DHT22;6680;53.220;10.402;2023-05-02T06:35:54;8.90;99.90
13229;DHT22;6680;53.220;10.402;2023-05-02T06:38:21;9.00;99.90
13229;DHT22;6680;53.220;10.402;2023-05-02T06:40:48;8.90;99.90
13229;DHT22;6680;53.220;10.402;2023-05-02T06:43:15;8.80;99.90
13229;DHT22;6680;53.220;10.402;2023-05-02T06:45:42;8.80;99.90
13229;DHT22;6680;53.220;10.402;2023-05-02T06:48:09;8.70;99.90
13229;DHT22;6680;53.220;10.402;2023-05-02T06:50:37;8.70;99.90
13229;DHT22;6680;53.220;10.402;2023-05-02T06:53:04;8.70;99.90
13229;DHT22;6680;53.220;10.402;2023-05-02T06:55:31;8.70;99.90
13229;DHT22;6680;53.220;10.402;2023-05-02T06:57:58;8.70;99.90
13229;DHT22;6680;53.220;10.402;2023-05-02T07:00:25;8.60;99.90
13229;DHT22;6680;53.220;10.402;2023-05-02T07:02:51;8.50;99.90
13229;DHT22;6680;53.220;10.402;2023-05-02T07:05:18;8.40;99.90
13229;DHT22;6680;53.220;10.402;2023-05-02T07:07:46;8.40;99.90
13229;DHT22;6680;53.220;10.402;2023-05-02T07:10:13;8.40;99.90
13229;DHT22;6680;53.220;10.402;2023-05-02T07:12:39;8.30;99.90
13229;DHT22;6680;53.220;10.402;2023-05-02T07:15:07;8.30;99.90
13229;DHT22;6680;53.220;10.402;2023-05-02T07:17:34;8.30;99.90
13229;DHT22;6680;53.220;10.402;2023-05-02T07:20:01;8.30;99.90
13229;DHT22;6680;53.220;10.402;2023-05-02T07:22:28;8.30;99.90
13229;DHT22;6680;53.220;10.402;2023-05-02T07:25:01;8.20;99.90
13229;DHT22;6680;53.220;10.402;2023-05-02T07:27:27;8.20;99.90
13229;DHT22;6680;53.220;10.402;2023-05-02T07:29:54;8.00;99.90
13229;DHT22;6680;53.220;10.402;2023-05-02T07:32:21;8.00;99.90
13229;DHT22;6680;53.220;10.402;2023-05-02T07:34:49;8.10;99.90
13229;DHT22;6680;53.220;10.402;2023-05-02T07:37:18;8.30;99.90
13229;DHT22;6680;53.220;10.402;2023-05-02T07:39:45;8.30;99.90
13229;DHT22;6680;53.220;10.402;2023-05-02T07:42:13;8.30;99.90
13229;DHT22;6680;53.220;10.402;2023-05-02T07:44:40;8.50;99.90
13229;DHT22;6680;53.220;10.402;2023-05-02T07:47:07;8.50;99.90
13229;DHT22;6680;53.220;10.402;2023-05-02T07:49:34;8.50;99.90
13229;DHT22;6680;53.220;10.402;2023-05-02T07:52:01;8.50;99.90
13229;DHT22;6680;53.220;10.402;2023-05-02T07:54:27;8.50;99.90
13229;DHT22;6680;53.220;10.402;2023-05-02T07:56:54;8.50;99.90
13229;DHT22;6680;53.220;10.402;2023-05-02T07:59:24;8.40;99.90
13229;DHT22;6680;53.220;10.402;2023-05-02T08:01:51;8.40;99.90
13229;DHT22;6680;53.220;10.402;2023-05-02T08:04:18;8.40;99.90
13229;DHT22;6680;53.220;10.402;2023-05-02T08:06:45;8.30;99.90
13229;DHT22;6680;53.220;10.402;2023-05-02T08:09:11;8.40;99.90
13229;DHT22;6680;53.220;10.402;2023-05-02T08:11:38;8.50;99.90
13229;DHT22;6680;53.220;10.402;2023-05-02T08:14:05;8.50;99.90
13229;DHT22;6680;53.220;10.402;2023-05-02T08:16:33;8.50;99.90
13229;DHT22;6680;53.220;10.402;2023-05-02T08:18:59;8.50;99.90
13229;DHT22;6680;53.220;10.402;2023-05-02T08:21:26;8.60;99.90
13229;DHT22;6680;53.220;10.402;2023-05-02T08:23:56;8.60;99.90
13229;DHT22;6680;53.220;10.402;2023-05-02T08:26:23;8.60;99.90
13229;DHT22;6680;53.220;10.402;2023-05-02T08:28:50;8.70;99.90
13229;DHT22;6680;53.220;10.402;2023-05-02T08:31:17;8.70;99.90
13229;DHT22;6680;53.220;10.402;2023-05-02T08:33:45;8.80;99.90
13229;DHT22;6680;53.220;10.402;2023-05-02T08:36:12;8.80;99.90
13229;DHT22;6680;53.220;10.402;2023-05-02T08:38:40;8.70;99.90
13229;DHT22;6680;53.220;10.402;2023-05-02T08:41:09;8.80;99.90
13229;DHT22;6680;53.220;10.402;2023-05-02T08:43:37;8.90;99.90
13229;DHT22;6680;53.220;10.402;2023-05-02T08:46:05;9.00;99.90
13229;DHT22;6680;53.220;10.402;2023-05-02T08:48:34;9.10;99.90
13229;DHT22;6680;53.220;10.402;2023-05-02T08:51:03;9.30;99.90
13229;DHT22;6680;53.220;10.402;2023-05-02T08:53:34;9.40;99.90
13229;DHT22;6680;53.220;10.402;2023-05-02T08:56:01;9.60;99.90
13229;DHT22;6680;53.220;10.402;2023-05-02T08:58:28;9.80;99.90
13229;DHT22;6680;53.220;10.402;2023-05-02T09:00:56;9.70;99.90
13229;DHT22;6680;53.220;10.402;2023-05-02T09:03:28;9.90;99.90
13229;DHT22;6680;53.220;10.402;2023-05-02T09:06:05;10.00;99.90
13229;DHT22;6680;53.220;10.402;2023-05-02T09:08:32;10.20;99.90
13229;DHT22;6680;53.220;10.402;2023-05-02T09:11:00;10.00;99.90
13229;DHT22;6680;53.220;10.402;2023-05-02T09:13:28;10.10;99.90
13229;DHT22;6680;53.220;10.402;2023-05-02T09:16:00;10.10;99.90
13229;DHT22;6680;53.220;10.402;2023-05-02T09:18:32;10.10;99.90
13229;DHT22;6680;53.220;10.402;2023-05-02T09:21:00;10.10;99.90
13229;DHT22;6680;53.220;10.402;2023-05-02T09:23:39;9.80;99.90
13229;DHT22;6680;53.220;10.402;2023-05-02T09:26:10;9.90;99.90
13229;DHT22;6680;53.220;10.402;2023-05-02T09:28:39;10.10;99.90
13229;DHT22;6680;53.220;10.402;2023-05-02T09:31:07;10.20;99.90
13229;DHT22;6680;53.220;10.402;2023-05-02T09:33:35;10.40;99.90
13229;DHT22;6680;53.220;10.402;2023-05-02T09:36:01;10.70;99.90
13229;DHT22;6680;53.220;10.402;2023-05-02T09:38:28;10.90;99.90
13229;DHT22;6680;53.220;10.402;2023-05-02T09:40:56;11.00;99.90
13229;DHT22;6680;53.220;10.402;2023-05-02T09:43:23;10.80;99.90
13229;DHT22;6680;53.220;10.402;2023-05-02T09:45:57;10.80;99.90
13229;DHT22;6680;53.220;10.402;2023-05-02T09:48:25;10.80;99.90
13229;DHT22;6680;53.220;10.402;2023-05-02T09:50:51;11.00;99.90
13229;DHT22;6680;53.220;10.402;2023-05-02T09:53:18;10.90;99.90
13229;DHT22;6680;53.220;10.402;2023-05-02T09:55:45;10.90;99.90
13229;DHT22;6680;53.220;10.402;2023-05-02T09:58:23;10.50;99.90
13229;DHT22;6680;53.220;10.402;2023-05-02T10:00:50;10.70;99.90
13229;DHT22;6680;53.220;10.402;2023-05-02T10:03:17;10.90;99.90
13229;DHT22;6680;53.220;10.402;2023-05-02T10:05:45;10.90;99.90
13229;DHT22;6680;53.220;10.402;2023-05-02T10:08:13;11.30;99.90
13229;DHT22;6680;53.220;10.402;2023-05-02T10:10:48;11.20;99.90
13229;DHT22;6680;53.220;10.402;2023-05-02T10:13:19;11.10;99.90
13229;DHT22;6680;53.220;10.402;2023-05-02T10:15:50;10.80;99.90
13229;DHT22;6680;53.220;10.402;2023-05-02T10:18:21;10.70;99.90
13229;DHT22;6680;53.220;10.402;2023-05-02T10:20:55;10.90;99.90
13229;DHT22;6680;53.220;10.402;2023-05-02T10:23:25;11.00;99.90
13229;DHT22;6680;53.220;10.402;2023-05-02T10:25:52;10.80;99.90
13229;DHT22;6680;53.220;10.402;2023-05-02T10:28:19;10.50;99.90
13229;DHT22;6680;53.220;10.402;2023-05-02T10:30:48;10.60;99.90
13229;DHT22;6680;53.220;10.402;2023-05-02T10:33:17;10.80;99.90
13229;DHT22;6680;53.220;10.402;2023-05-02T10:35:45;11.00;99.90
13229;DHT22;6680;53.220;10.402;2023-05-02T10:38:15;11.60;99.90
13229;DHT22;6680;53.220;10.402;2023-05-02T10:40:48;11.50;99.90
13229;DHT22;6680;53.220;10.402;2023-05-02T10:43:21;11.60;99.90
13229;DHT22;6680;53.220;10.402;2023-05-02T10:45:49;11.50;99.90
13229;DHT22;6680;53.220;10.402;2023-05-02T10:48:18;11.50;99.90
13229;DHT22;6680;53.220;10.402;2023-05-02T10:50:47;11.50;99.90
13229;DHT22;6680;53.220;10.402;2023-05-02T10:53:28;11.60;99.90
13229;DHT22;6680;53.220;10.402;2023-05-02T10:56:08;11.90;99.90
13229;DHT22;6680;53.220;10.402;2023-05-02T10:58:36;11.90;99.90
13229;DHT22;6680;53.220;10.402;2023-05-02T11:01:32;11.80;99.90
13229;DHT22;6680;53.220;10.402;2023-05-02T11:04:05;11.70;99.90
13229;DHT22;6680;53.220;10.402;2023-05-02T11:06:34;11.70;99.90
13229;DHT22;6680;53.220;10.402;2023-05-02T11:09:31;11.90;99.90
13229;DHT22;6680;53.220;10.402;2023-05-02T11:12:01;11.90;99.90
13229;DHT22;6680;53.220;10.402;2023-05-02T11:14:48;12.00;99.90
13229;DHT22;6680;53.220;10.402;2023-05-02T11:17:16;12.20;99.90
13229;DHT22;6680;53.220;10.402;2023-05-02T11:22:56;12.60;99.90
13229;DHT22;6680;53.220;10.402;2023-05-02T11:25:31;12.70;99.90
13229;DHT22;6680;53.220;10.402;2023-05-02T11:27:58;12.90;99.90
13229;DHT22;6680;53.220;10.402;2023-05-02T11:30:41;12.80;99.90
13229;DHT22;6680;53.220;10.402;2023-05-02T11:33:17;12.90;99.90
13229;DHT22;6680;53.220;10.402;2023-05-02T11:35:45;13.00;99.90
13229;DHT22;6680;53.220;10.402;2023-05-02T11:38:15;12.80;99.90
13229;DHT22;6680;53.220;10.402;2023-05-02T11:40:57;12.50;99.90
13229;DHT22;6680;53.220;10.402;2023-05-02T11:43:26;12.40;99.90
13229;DHT22;6680;53.220;10.402;2023-05-02T11:45:53;12.40;99.90
13229;DHT22;6680;53.220;10.402;2023-05-02T11:48:23;12.50;99.90
13229;DHT22;6680;53.220;10.402;2023-05-02T11:50:53;12.60;99.90
13229;DHT22;6680;53.220;10.402;2023-05-02T11:53:22;12.50;99.90
13229;DHT22;6680;53.220;10.402;2023-05-02T11:55:50;12.60;99.90
13229;DHT22;6680;53.220;10.402;2023-05-02T11:58:19;13.10;99.90
13229;DHT22;6680;53.220;10.402;2023-05-02T12:00:47;12.90;99.90
13229;DHT22;6680;53.220;10.402;2023-05-02T12:03:27;13.00;99.90
13229;DHT22;6680;53.220;10.402;2023-05-02T12:05:55;13.00;99.90
13229;DHT22;6680;53.220;10.402;2023-05-02T12:08:25;12.80;99.90
13229;DHT22;6680;53.220;10.402;2023-05-02T12:10:53;12.50;99.90
13229;DHT22;6680;53.220;10.402;2023-05-02T12:13:21;12.50;99.90
13229;DHT22;6680;53.220;10.402;2023-05-02T12:15:49;12.40;99.90
13229;DHT22;6680;53.220;10.402;2023-05-02T12:18:18;12.60;99.90
13229;DHT22;6680;53.220;10.402;2023-05-02T12:20:46;12.50;99.90
13229;DHT22;6680;53.220;10.402;2023-05-02T12:23:13;12.60;99.90
13229;DHT22;6680;53.220;10.402;2023-05-02T12:25:40;12.40;99.90
13229;DHT22;6680;53.220;10.402;2023-05-02T12:28:07;12.60;99.90
13229;DHT22;6680;53.220;10.402;2023-05-02T12:30:36;12.30;99.90
13229;DHT22;6680;53.220;10.402;2023-05-02T12:33:05;12.40;99.90
13229;DHT22;6680;53.220;10.402;2023-05-02T12:35:33;12.30;99.90
13229;DHT22;6680;53.220;10.402;2023-05-02T12:38:10;12.50;99.90
13229;DHT22;6680;53.220;10.402;2023-05-02T12:40:37;12.30;99.90
13229;DHT22;6680;53.220;10.402;2023-05-02T12:43:04;12.40;99.90
13229;DHT22;6680;53.220;10.402;2023-05-02T12:45:35;12.40;99.90
13229;DHT22;6680;53.220;10.402;2023-05-02T12:48:05;12.40;99.90
13229;DHT22;6680;53.220;10.402;2023-05-02T12:50:42;12.60;99.90
13229;DHT22;6680;53.220;10.402;2023-05-02T12:53:10;12.70;99.90
13229;DHT22;6680;53.220;10.402;2023-05-02T12:55:37;12.80;99.90
13229;DHT22;6680;53.220;10.402;2023-05-02T12:58:05;12.60;99.90
13229;DHT22;6680;53.220;10.402;2023-05-02T13:00:33;12.50;99.90
13229;DHT22;6680;53.220;10.402;2023-05-02T13:03:01;12.20;99.90
13229;DHT22;6680;53.220;10.402;2023-05-02T13:05:27;12.10;99.90
13229;DHT22;6680;53.220;10.402;2023-05-02T13:07:54;11.80;99.90
13229;DHT22;6680;53.220;10.402;2023-05-02T13:10:24;11.60;99.90
13229;DHT22;6680;53.220;10.402;2023-05-02T13:12:52;11.40;99.90
13229;DHT22;6680;53.220;10.402;2023-05-02T13:15:19;11.30;99.90
13229;DHT22;6680;53.220;10.402;2023-05-02T13:17:46;11.20;99.90
13229;DHT22;6680;53.220;10.402;2023-05-02T13:20:12;11.20;99.90
13229;DHT22;6680;53.220;10.402;2023-05-02T13:22:39;11.30;99.90
13229;DHT22;6680;53.220;10.402;2023-05-02T13:25:07;11.50;99.90
13229;DHT22;6680;53.220;10.402;2023-05-02T13:27:35;11.50;99.90
13229;DHT22;6680;53.220;10.402;2023-05-02T13:30:02;11.60;99.90
13229;DHT22;6680;53.220;10.402;2023-05-02T13:32:29;11.60;99.90
13229;DHT22;6680;53.220;10.402;2023-05-02T13:34:56;11.60;99.90
13229;DHT22;6680;53.220;10.402;2023-05-02T13:37:23;11.50;99.90
13229;DHT22;6680;53.220;10.402;2023-05-02T13:39:50;11.60;99.90
13229;DHT22;6680;53.220;10.402;2023-05-02T13:42:17;11.70;99.90
13229;DHT22;6680;53.220;10.402;2023-05-02T13:44:45;11.70;99.90
13229;DHT22;6680;53.220;10.402;2023-05-02T13:47:12;11.60;99.90
13229;DHT22;6680;53.220;10.402;2023-05-02T13:49:39;11.60;99.90
13229;DHT22;6680;53.220;10.402;2023-05-02T13:52:05;11.50;99.90
13229;DHT22;6680;53.220;10.402;2023-05-02T13:54:32;11.50;99.90
13229;DHT22;6680;53.220;10.402;2023-05-02T13:56:59;11.40;99.90
13229;DHT22;6680;53.220;10.402;2023-05-02T13:59:27;11.30;99.90
13229;DHT22;6680;53.220;10.402;2023-05-02T14:01:55;11.30;99.90
13229;DHT22;6680;53.220;10.402;2023-05-02T14:04:21;11.40;99.90
13229;DHT22;6680;53.220;10.402;2023-05-02T14:06:48;11.60;99.90
13229;DHT22;6680;53.220;10.402;2023-05-02T14:09:15;11.80;99.90
13229;DHT22;6680;53.220;10.402;2023-05-02T14:11:41;12.00;99.90
13229;DHT22;6680;53.220;10.402;2023-05-02T14:14:11;12.10;99.90
13229;DHT22;6680;53.220;10.402;2023-05-02T14:16:38;12.00;99.90
13229;DHT22;6680;53.220;10.402;2023-05-02T14:19:06;12.00;99.90
13229;DHT22;6680;53.220;10.402;2023-05-02T14:21:33;11.90;99.90
13229;DHT22;6680;53.220;10.402;2023-05-02T14:24:00;11.90;99.90
13229;DHT22;6680;53.220;10.402;2023-05-02T14:26:27;11.80;99.90
13229;DHT22;6680;53.220;10.402;2023-05-02T14:28:54;11.70;99.90
13229;DHT22;6680;53.220;10.402;2023-05-02T14:31:21;11.60;99.90
13229;DHT22;6680;53.220;10.402;2023-05-02T14:33:47;11.50;99.90
13229;DHT22;6680;53.220;10.402;2023-05-02T14:36:16;11.60;99.90
13229;DHT22;6680;53.220;10.402;2023-05-02T14:38:42;11.50;99.90
13229;DHT22;6680;53.220;10.402;2023-05-02T14:41:09;11.40;99.90
13229;DHT22;6680;53.220;10.402;2023-05-02T14:43:36;11.40;99.90
13229;DHT22;6680;53.220;10.402;2023-05-02T14:46:03;11.30;99.90
13229;DHT22;6680;53.220;10.402;2023-05-02T14:48:30;11.30;99.90
13229;DHT22;6680;53.220;10.402;2023-05-02T14:50:57;11.30;99.90
13229;DHT22;6680;53.220;10.402;2023-05-02T14:53:26;11.30;99.90
13229;DHT22;6680;53.220;10.402;2023-05-02T14:55:53;11.10;99.90
13229;DHT22;6680;53.220;10.402;2023-05-02T14:58:20;10.90;99.90
13229;DHT22;6680;53.220;10.402;2023-05-02T15:00:47;10.90;99.90
13229;DHT22;6680;53.220;10.402;2023-05-02T15:03:13;10.90;99.90
13229;DHT22;6680;53.220;10.402;2023-05-02T15:05:40;10.90;99.90
13229;DHT22;6680;53.220;10.402;2023-05-02T15:08:07;10.90;99.90
13229;DHT22;6680;53.220;10.402;2023-05-02T15:10:37;10.90;99.90
13229;DHT22;6680;53.220;10.402;2023-05-02T15:13:04;11.10;99.90
13229;DHT22;6680;53.220;10.402;2023-05-02T15:15:31;11.20;99.90
13229;DHT22;6680;53.220;10.402;2023-05-02T15:17:58;11.30;99.90
13229;DHT22;6680;53.220;10.402;2023-05-02T15:20:25;11.30;99.90
13229;DHT22;6680;53.220;10.402;2023-05-02T15:22:51;11.30;99.90
13229;DHT22;6680;53.220;10.402;2023-05-02T15:25:18;11.30;99.90
13229;DHT22;6680;53.220;10.402;2023-05-02T15:27:46;11.40;99.90
13229;DHT22;6680;53.220;10.402;2023-05-02T15:30:13;11.40;99.90
13229;DHT22;6680;53.220;10.402;2023-05-02T15:32:40;11.20;99.90
13229;DHT22;6680;53.220;10.402;2023-05-02T15:35:07;11.10;99.90
13229;DHT22;6680;53.220;10.402;2023-05-02T15:37:34;11.10;99.90
13229;DHT22;6680;53.220;10.402;2023-05-02T15:40:00;11.10;99.90
13229;DHT22;6680;53.220;10.402;2023-05-02T15:42:28;11.00;99.90
13229;DHT22;6680;53.220;10.402;2023-05-02T15:44:56;10.90;99.90
13229;DHT22;6680;53.220;10.402;2023-05-02T15:47:22;10.90;99.90